sensor_id;sensor_type;location;lat;lon;timestamp;temperature;humidity
46652;DHT22;32377;52.182;5.398;2022-09-09T00:01:23;15.20;99.90
46652;DHT22;32377;52.182;5.398;2022-09-09T00:04:09;15.20;99.90
46652;DHT22;32377;52.182;5.398;2022-09-09T00:09:45;15.20;99.90
46652;DHT22;32377;52.182;5.398;2022-09-09T00:15:18;15.10;99.90
46652;DHT22;32377;52.182;5.398;2022-09-09T00:17:53;15.10;99.90
46652;DHT22;32377;52.182;5.398;2022-09-09T00:20:43;15.10;99.90
46652;DHT22;32377;52.182;5.398;2022-09-09T00:23:25;15.10;99.90
46652;DHT22;32377;52.182;5.398;2022-09-09T00:26:09;15.10;99.90
46652;DHT22;32377;52.182;5.398;2022-09-09T00:28:52;15.10;99.90
46652;DHT22;32377;52.182;5.398;2022-09-09T00:31:26;15.00;99.90
46652;DHT22;32377;52.182;5.398;2022-09-09T00:33:53;15.00;99.90
46652;DHT22;32377;52.182;5.398;2022-09-09T00:36:23;15.10;99.90
46652;DHT22;32377;52.182;5.398;2022-09-09T00:38:57;15.10;99.90
46652;DHT22;32377;52.182;5.398;2022-09-09T00:44:32;15.10;99.90
46652;DHT22;32377;52.182;5.398;2022-09-09T00:47:26;15.00;99.90
46652;DHT22;32377;52.182;5.398;2022-09-09T00:50:15;15.00;99.90
46652;DHT22;32377;52.182;5.398;2022-09-09T00:55:34;14.90;99.90
46652;DHT22;32377;52.182;5.398;2022-09-09T00:58:02;14.90;99.90
46652;DHT22;32377;52.182;5.398;2022-09-09T01:00:31;14.80;99.90
46652;DHT22;32377;52.182;5.398;2022-09-09T01:03:08;14.90;99.90
46652;DHT22;32377;52.182;5.398;2022-09-09T01:05:37;14.80;99.90
46652;DHT22;32377;52.182;5.398;2022-09-09T01:10:52;14.90;99.90
46652;DHT22;32377;52.182;5.398;2022-09-09T01:13:30;14.80;99.90
46652;DHT22;32377;52.182;5.398;2022-09-09T01:15:58;14.80;99.90
46652;DHT22;32377;52.182;5.398;2022-09-09T01:18:54;14.80;99.90
46652;DHT22;32377;52.182;5.398;2022-09-09T01:21:41;14.70;99.90
46652;DHT22;32377;52.182;5.398;2022-09-09T01:24:21;14.70;99.90
46652;DHT22;32377;52.182;5.398;2022-09-09T01:26:51;14.70;99.90
46652;DHT22;32377;52.182;5.398;2022-09-09T01:29:19;14.70;99.90
46652;DHT22;32377;52.182;5.398;2022-09-09T01:32:00;14.60;99.90
46652;DHT22;32377;52.182;5.398;2022-09-09T01:34:36;14.60;99.90
46652;DHT22;32377;52.182;5.398;2022-09-09T01:37:08;14.60;99.90
46652;DHT22;32377;52.182;5.398;2022-09-09T01:39:37;14.50;99.90
46652;DHT22;32377;52.182;5.398;2022-09-09T01:42:05;14.50;99.90
46652;DHT22;32377;52.182;5.398;2022-09-09T01:44:32;14.50;99.90
46652;DHT22;32377;52.182;5.398;2022-09-09T01:46:58;14.50;99.90
46652;DHT22;32377;52.182;5.398;2022-09-09T01:49:23;14.40;99.90
46652;DHT22;32377;52.182;5.398;2022-09-09T01:51:51;14.40;99.90
46652;DHT22;32377;52.182;5.398;2022-09-09T01:54:19;14.40;99.90
46652;DHT22;32377;52.182;5.398;2022-09-09T01:56:47;14.40;99.90
46652;DHT22;32377;52.182;5.398;2022-09-09T02:04:50;14.30;99.90
46652;DHT22;32377;52.182;5.398;2022-09-09T02:10:09;14.30;99.90
46652;DHT22;32377;52.182;5.398;2022-09-09T02:12:36;14.30;99.90
46652;DHT22;32377;52.182;5.398;2022-09-09T02:15:11;14.20;99.90
46652;DHT22;32377;52.182;5.398;2022-09-09T02:17:40;14.20;99.90
46652;DHT22;32377;52.182;5.398;2022-09-09T02:20:11;14.20;99.90
46652;DHT22;32377;52.182;5.398;2022-09-09T02:22:39;14.20;99.90
46652;DHT22;32377;52.182;5.398;2022-09-09T02:25:07;14.20;99.90
46652;DHT22;32377;52.182;5.398;2022-09-09T02:27:34;14.20;99.90
46652;DHT22;32377;52.182;5.398;2022-09-09T02:30:02;14.20;99.90
46652;DHT22;32377;52.182;5.398;2022-09-09T02:32:29;14.30;99.90
46652;DHT22;32377;52.182;5.398;2022-09-09T02:35:00;14.20;99.90
46652;DHT22;32377;52.182;5.398;2022-09-09T02:37:36;14.20;99.90
46652;DHT22;32377;52.182;5.398;2022-09-09T02:40:08;14.30;99.90
46652;DHT22;32377;52.182;5.398;2022-09-09T02:42:48;14.30;99.90
46652;DHT22;32377;52.182;5.398;2022-09-09T02:45:17;14.30;99.90
46652;DHT22;32377;52.182;5.398;2022-09-09T02:50:16;14.20;99.90
46652;DHT22;32377;52.182;5.398;2022-09-09T02:53:18;14.20;99.90
46652;DHT22;32377;52.182;5.398;2022-09-09T02:55:57;14.20;99.90
46652;DHT22;32377;52.182;5.398;2022-09-09T02:58:23;14.20;99.90
46652;DHT22;32377;52.182;5.398;2022-09-09T03:00:50;14.20;99.90
46652;DHT22;32377;52.182;5.398;2022-09-09T03:03:17;14.20;99.90
46652;DHT22;32377;52.182;5.398;2022-09-09T03:05:43;14.20;99.90
46652;DHT22;32377;52.182;5.398;2022-09-09T03:08:10;14.10;99.90
46652;DHT22;32377;52.182;5.398;2022-09-09T03:10:36;14.10;99.90
46652;DHT22;32377;52.182;5.398;2022-09-09T03:13:03;14.10;99.90
46652;DHT22;32377;52.182;5.398;2022-09-09T03:15:32;14.10;99.90
46652;DHT22;32377;52.182;5.398;2022-09-09T03:17:58;14.10;99.90
46652;DHT22;32377;52.182;5.398;2022-09-09T03:20:25;14.00;99.90
46652;DHT22;32377;52.182;5.398;2022-09-09T03:22:52;14.10;99.90
46652;DHT22;32377;52.182;5.398;2022-09-09T03:25:18;14.00;99.90
46652;DHT22;32377;52.182;5.398;2022-09-09T03:27:43;14.00;99.90
46652;DHT22;32377;52.182;5.398;2022-09-09T03:30:09;14.00;99.90
46652;DHT22;32377;52.182;5.398;2022-09-09T03:32:35;14.00;99.90
46652;DHT22;32377;52.182;5.398;2022-09-09T03:35:01;14.00;99.90
46652;DHT22;32377;52.182;5.398;2022-09-09T03:37:26;13.90;99.90
46652;DHT22;32377;52.182;5.398;2022-09-09T03:39:52;13.90;99.90
46652;DHT22;32377;52.182;5.398;2022-09-09T03:42:19;13.90;99.90
46652;DHT22;32377;52.182;5.398;2022-09-09T03:44:46;13.90;99.90
46652;DHT22;32377;52.182;5.398;2022-09-09T03:47:19;13.90;99.90
46652;DHT22;32377;52.182;5.398;2022-09-09T03:49:47;13.90;99.90
46652;DHT22;32377;52.182;5.398;2022-09-09T03:52:14;13.90;99.90
46652;DHT22;32377;52.182;5.398;2022-09-09T03:54:40;13.90;99.90
46652;DHT22;32377;52.182;5.398;2022-09-09T03:57:10;13.90;99.90
46652;DHT22;32377;52.182;5.398;2022-09-09T03:59:36;13.80;99.90
46652;DHT22;32377;52.182;5.398;2022-09-09T04:02:03;13.90;99.90
46652;DHT22;32377;52.182;5.398;2022-09-09T04:04:28;13.90;99.90
46652;DHT22;32377;52.182;5.398;2022-09-09T04:06:54;13.80;99.90
46652;DHT22;32377;52.182;5.398;2022-09-09T04:09:20;13.80;99.90
46652;DHT22;32377;52.182;5.398;2022-09-09T04:11:45;13.90;99.90
46652;DHT22;32377;52.182;5.398;2022-09-09T04:14:11;13.80;99.90
46652;DHT22;32377;52.182;5.398;2022-09-09T04:16:38;13.80;99.90
46652;DHT22;32377;52.182;5.398;2022-09-09T04:19:04;13.80;99.90
46652;DHT22;32377;52.182;5.398;2022-09-09T04:21:32;13.80;99.90
46652;DHT22;32377;52.182;5.398;2022-09-09T04:23:57;13.70;99.90
46652;DHT22;32377;52.182;5.398;2022-09-09T04:26:23;13.70;99.90
46652;DHT22;32377;52.182;5.398;2022-09-09T04:28:48;13.70;99.90
46652;DHT22;32377;52.182;5.398;2022-09-09T04:31:17;13.70;99.90
46652;DHT22;32377;52.182;5.398;2022-09-09T04:33:44;13.70;99.90
46652;DHT22;32377;52.182;5.398;2022-09-09T04:36:09;13.70;99.90
46652;DHT22;32377;52.182;5.398;2022-09-09T04:38:35;13.70;99.90
46652;DHT22;32377;52.182;5.398;2022-09-09T04:41:01;13.70;99.90
46652;DHT22;32377;52.182;5.398;2022-09-09T04:43:27;13.80;99.90
46652;DHT22;32377;52.182;5.398;2022-09-09T04:45:53;13.80;99.90
46652;DHT22;32377;52.182;5.398;2022-09-09T04:48:19;13.90;99.90
46652;DHT22;32377;52.182;5.398;2022-09-09T04:51:09;13.90;99.90
46652;DHT22;32377;52.182;5.398;2022-09-09T04:53:35;13.90;99.90
46652;DHT22;32377;52.182;5.398;2022-09-09T04:56:05;13.90;99.90
46652;DHT22;32377;52.182;5.398;2022-09-09T04:58:32;13.90;99.90
46652;DHT22;32377;52.182;5.398;2022-09-09T05:01:13;13.90;99.90
46652;DHT22;32377;52.182;5.398;2022-09-09T05:03:38;13.80;99.90
46652;DHT22;32377;52.182;5.398;2022-09-09T05:06:12;13.80;99.90
46652;DHT22;32377;52.182;5.398;2022-09-09T05:08:40;13.80;99.90
46652;DHT22;32377;52.182;5.398;2022-09-09T05:11:38;13.80;99.90
46652;DHT22;32377;52.182;5.398;2022-09-09T05:14:03;13.80;99.90
46652;DHT22;32377;52.182;5.398;2022-09-09T05:16:30;13.90;99.90
46652;DHT22;32377;52.182;5.398;2022-09-09T05:18:56;13.80;99.90
46652;DHT22;32377;52.182;5.398;2022-09-09T05:21:23;13.90;99.90
46652;DHT22;32377;52.182;5.398;2022-09-09T05:23:50;13.90;99.90
46652;DHT22;32377;52.182;5.398;2022-09-09T05:26:19;13.90;99.90
46652;DHT22;32377;52.182;5.398;2022-09-09T05:28:45;13.90;99.90
46652;DHT22;32377;52.182;5.398;2022-09-09T05:31:12;13.90;99.90
46652;DHT22;32377;52.182;5.398;2022-09-09T05:33:39;13.90;99.90
46652;DHT22;32377;52.182;5.398;2022-09-09T05:36:16;14.00;99.90
46652;DHT22;32377;52.182;5.398;2022-09-09T05:38:43;14.00;99.90
46652;DHT22;32377;52.182;5.398;2022-09-09T05:41:09;13.90;99.90
46652;DHT22;32377;52.182;5.398;2022-09-09T05:43:37;14.00;99.90
46652;DHT22;32377;52.182;5.398;2022-09-09T05:46:08;14.00;99.90
46652;DHT22;32377;52.182;5.398;2022-09-09T05:48:36;14.00;99.90
46652;DHT22;32377;52.182;5.398;2022-09-09T05:51:03;14.00;99.90
46652;DHT22;32377;52.182;5.398;2022-09-09T05:53:30;14.00;99.90
46652;DHT22;32377;52.182;5.398;2022-09-09T05:56:22;14.10;99.90
46652;DHT22;32377;52.182;5.398;2022-09-09T05:58:49;14.10;99.90
46652;DHT22;32377;52.182;5.398;2022-09-09T06:01:26;14.10;99.90
46652;DHT22;32377;52.182;5.398;2022-09-09T06:03:52;14.20;99.90
46652;DHT22;32377;52.182;5.398;2022-09-09T06:06:23;14.20;99.90
46652;DHT22;32377;52.182;5.398;2022-09-09T06:08:52;14.30;99.90
46652;DHT22;32377;52.182;5.398;2022-09-09T06:11:26;14.30;99.90
46652;DHT22;32377;52.182;5.398;2022-09-09T06:13:52;14.30;99.90
46652;DHT22;32377;52.182;5.398;2022-09-09T06:16:22;14.40;99.90
46652;DHT22;32377;52.182;5.398;2022-09-09T06:18:49;14.40;99.90
46652;DHT22;32377;52.182;5.398;2022-09-09T06:21:18;14.40;99.90
46652;DHT22;32377;52.182;5.398;2022-09-09T06:23:44;14.40;99.90
46652;DHT22;32377;52.182;5.398;2022-09-09T06:26:12;14.50;99.90
46652;DHT22;32377;52.182;5.398;2022-09-09T06:28:39;14.60;99.90
46652;DHT22;32377;52.182;5.398;2022-09-09T06:31:08;14.60;99.90
46652;DHT22;32377;52.182;5.398;2022-09-09T06:33:36;14.70;99.90
46652;DHT22;32377;52.182;5.398;2022-09-09T06:36:05;14.70;99.90
46652;DHT22;32377;52.182;5.398;2022-09-09T06:38:30;14.70;99.90
46652;DHT22;32377;52.182;5.398;2022-09-09T06:40:58;14.80;99.90
46652;DHT22;32377;52.182;5.398;2022-09-09T06:43:25;14.90;99.90
46652;DHT22;32377;52.182;5.398;2022-09-09T06:45:58;15.10;99.90
46652;DHT22;32377;52.182;5.398;2022-09-09T06:48:24;15.30;99.90
46652;DHT22;32377;52.182;5.398;2022-09-09T06:51:13;15.40;99.90
46652;DHT22;32377;52.182;5.398;2022-09-09T06:53:39;15.60;99.90
46652;DHT22;32377;52.182;5.398;2022-09-09T06:56:29;15.70;99.90
46652;DHT22;32377;52.182;5.398;2022-09-09T06:58:57;15.70;99.90
46652;DHT22;32377;52.182;5.398;2022-09-09T07:01:28;15.70;99.90
46652;DHT22;32377;52.182;5.398;2022-09-09T07:03:55;15.80;99.90
46652;DHT22;32377;52.182;5.398;2022-09-09T07:06:29;15.80;99.90
46652;DHT22;32377;52.182;5.398;2022-09-09T07:09:01;16.00;99.90
46652;DHT22;32377;52.182;5.398;2022-09-09T07:11:29;16.10;99.90
46652;DHT22;32377;52.182;5.398;2022-09-09T07:13:57;16.20;99.90
46652;DHT22;32377;52.182;5.398;2022-09-09T07:16:23;16.30;99.90
46652;DHT22;32377;52.182;5.398;2022-09-09T07:18:50;16.40;99.90
46652;DHT22;32377;52.182;5.398;2022-09-09T07:21:16;16.40;99.90
46652;DHT22;32377;52.182;5.398;2022-09-09T07:23:42;16.30;99.90
46652;DHT22;32377;52.182;5.398;2022-09-09T07:26:14;16.30;99.90
46652;DHT22;32377;52.182;5.398;2022-09-09T07:28:41;16.30;99.90
46652;DHT22;32377;52.182;5.398;2022-09-09T07:31:13;16.20;99.90
46652;DHT22;32377;52.182;5.398;2022-09-09T07:33:39;16.20;99.90
46652;DHT22;32377;52.182;5.398;2022-09-09T07:36:21;16.20;99.90
46652;DHT22;32377;52.182;5.398;2022-09-09T07:38:51;16.20;99.90
46652;DHT22;32377;52.182;5.398;2022-09-09T07:41:23;16.20;99.90
46652;DHT22;32377;52.182;5.398;2022-09-09T07:43:50;16.20;99.90
46652;DHT22;32377;52.182;5.398;2022-09-09T07:46:18;16.30;99.90
46652;DHT22;32377;52.182;5.398;2022-09-09T07:48:52;16.40;99.90
46652;DHT22;32377;52.182;5.398;2022-09-09T07:51:30;16.60;99.90
46652;DHT22;32377;52.182;5.398;2022-09-09T07:53:58;16.70;99.90
46652;DHT22;32377;52.182;5.398;2022-09-09T07:56:25;17.00;99.90
46652;DHT22;32377;52.182;5.398;2022-09-09T07:58:52;17.00;99.90
46652;DHT22;32377;52.182;5.398;2022-09-09T08:01:27;17.20;99.90
46652;DHT22;32377;52.182;5.398;2022-09-09T08:03:56;17.30;99.90
46652;DHT22;32377;52.182;5.398;2022-09-09T08:06:26;17.40;99.90
46652;DHT22;32377;52.182;5.398;2022-09-09T08:08:52;17.30;99.90
46652;DHT22;32377;52.182;5.398;2022-09-09T08:11:18;17.40;99.90
46652;DHT22;32377;52.182;5.398;2022-09-09T08:13:44;17.40;99.90
46652;DHT22;32377;52.182;5.398;2022-09-09T08:16:18;17.50;99.90
46652;DHT22;32377;52.182;5.398;2022-09-09T08:18:47;17.50;99.90
46652;DHT22;32377;52.182;5.398;2022-09-09T08:21:15;17.50;99.90
46652;DHT22;32377;52.182;5.398;2022-09-09T08:23:44;17.40;99.90
46652;DHT22;32377;52.182;5.398;2022-09-09T08:26:19;17.30;99.90
46652;DHT22;32377;52.182;5.398;2022-09-09T08:28:50;17.30;99.90
46652;DHT22;32377;52.182;5.398;2022-09-09T08:31:19;17.30;99.90
46652;DHT22;32377;52.182;5.398;2022-09-09T08:33:46;17.10;99.90
46652;DHT22;32377;52.182;5.398;2022-09-09T08:36:14;17.10;99.90
46652;DHT22;32377;52.182;5.398;2022-09-09T08:38:41;17.00;99.90
46652;DHT22;32377;52.182;5.398;2022-09-09T08:41:29;17.00;99.90
46652;DHT22;32377;52.182;5.398;2022-09-09T08:44:07;17.00;99.90
46652;DHT22;32377;52.182;5.398;2022-09-09T08:47:01;16.90;99.90
46652;DHT22;32377;52.182;5.398;2022-09-09T08:52:51;16.90;99.90
46652;DHT22;32377;52.182;5.398;2022-09-09T08:55:35;16.80;99.90
46652;DHT22;32377;52.182;5.398;2022-09-09T08:58:12;16.90;99.90
46652;DHT22;32377;52.182;5.398;2022-09-09T09:11:26;17.30;99.90
46652;DHT22;32377;52.182;5.398;2022-09-09T09:13:59;17.40;99.90
46652;DHT22;32377;52.182;5.398;2022-09-09T09:16:34;17.40;99.90
46652;DHT22;32377;52.182;5.398;2022-09-09T09:19:02;17.40;99.90
46652;DHT22;32377;52.182;5.398;2022-09-09T09:23:58;17.20;99.90
46652;DHT22;32377;52.182;5.398;2022-09-09T09:26:30;17.20;99.90
46652;DHT22;32377;52.182;5.398;2022-09-09T09:28:58;17.10;99.90
46652;DHT22;32377;52.182;5.398;2022-09-09T09:31:24;17.10;99.90
46652;DHT22;32377;52.182;5.398;2022-09-09T09:33:54;17.10;99.90
46652;DHT22;32377;52.182;5.398;2022-09-09T09:36:24;17.20;99.90
46652;DHT22;32377;52.182;5.398;2022-09-09T09:38:58;17.10;99.90
46652;DHT22;32377;52.182;5.398;2022-09-09T09:41:38;17.10;99.90
46652;DHT22;32377;52.182;5.398;2022-09-09T09:44:04;17.10;99.90
46652;DHT22;32377;52.182;5.398;2022-09-09T09:46:30;17.20;99.90
46652;DHT22;32377;52.182;5.398;2022-09-09T09:49:05;17.20;99.90
46652;DHT22;32377;52.182;5.398;2022-09-09T09:51:32;17.30;99.90
46652;DHT22;32377;52.182;5.398;2022-09-09T09:54:23;17.40;99.90
46652;DHT22;32377;52.182;5.398;2022-09-09T09:56:50;17.30;99.90
46652;DHT22;32377;52.182;5.398;2022-09-09T10:01:52;17.40;99.90
46652;DHT22;32377;52.182;5.398;2022-09-09T10:04:20;17.40;99.90
46652;DHT22;32377;52.182;5.398;2022-09-09T10:06:49;17.60;99.90
46652;DHT22;32377;52.182;5.398;2022-09-09T10:09:28;17.60;99.90
46652;DHT22;32377;52.182;5.398;2022-09-09T10:12:04;17.60;99.90
46652;DHT22;32377;52.182;5.398;2022-09-09T10:17:28;17.60;99.90
46652;DHT22;32377;52.182;5.398;2022-09-09T10:20:16;17.70;99.90
46652;DHT22;32377;52.182;5.398;2022-09-09T10:22:49;17.70;99.90
46652;DHT22;32377;52.182;5.398;2022-09-09T10:25:31;17.70;99.90
46652;DHT22;32377;52.182;5.398;2022-09-09T10:31:57;17.70;99.90
46652;DHT22;32377;52.182;5.398;2022-09-09T10:36:32;17.50;99.90
46652;DHT22;32377;52.182;5.398;2022-09-09T10:42:05;17.40;99.90
46652;DHT22;32377;52.182;5.398;2022-09-09T10:55:37;17.40;99.90
46652;DHT22;32377;52.182;5.398;2022-09-09T10:58:04;17.50;99.90
46652;DHT22;32377;52.182;5.398;2022-09-09T11:00:41;17.50;99.90
46652;DHT22;32377;52.182;5.398;2022-09-09T11:03:24;17.70;99.90
46652;DHT22;32377;52.182;5.398;2022-09-09T11:05:55;17.50;99.90
46652;DHT22;32377;52.182;5.398;2022-09-09T11:08:26;17.40;99.90
46652;DHT22;32377;52.182;5.398;2022-09-09T11:11:03;17.50;99.90
46652;DHT22;32377;52.182;5.398;2022-09-09T11:13:40;17.60;99.90
46652;DHT22;32377;52.182;5.398;2022-09-09T11:18:39;18.00;99.90
46652;DHT22;32377;52.182;5.398;2022-09-09T11:21:13;18.20;99.90
46652;DHT22;32377;52.182;5.398;2022-09-09T11:23:57;18.30;99.90
46652;DHT22;32377;52.182;5.398;2022-09-09T11:26:52;18.30;99.90
46652;DHT22;32377;52.182;5.398;2022-09-09T11:29:40;18.40;99.90
46652;DHT22;32377;52.182;5.398;2022-09-09T11:40:28;18.20;99.90
46652;DHT22;32377;52.182;5.398;2022-09-09T11:45:55;18.50;99.90
46652;DHT22;32377;52.182;5.398;2022-09-09T11:53:54;18.50;99.90
46652;DHT22;32377;52.182;5.398;2022-09-09T11:56:28;18.70;99.90
46652;DHT22;32377;52.182;5.398;2022-09-09T11:59:01;18.80;99.90
46652;DHT22;32377;52.182;5.398;2022-09-09T12:01:33;18.70;99.90
46652;DHT22;32377;52.182;5.398;2022-09-09T12:04:47;18.70;99.90
46652;DHT22;32377;52.182;5.398;2022-09-09T12:12:31;18.40;99.90
46652;DHT22;32377;52.182;5.398;2022-09-09T12:17:30;18.60;99.90
46652;DHT22;32377;52.182;5.398;2022-09-09T12:20:21;18.60;99.90
46652;DHT22;32377;52.182;5.398;2022-09-09T12:25:18;18.70;99.90
46652;DHT22;32377;52.182;5.398;2022-09-09T12:28:00;18.70;99.90
46652;DHT22;32377;52.182;5.398;2022-09-09T12:31:32;18.30;99.90
46652;DHT22;32377;52.182;5.398;2022-09-09T12:33:40;18.20;99.90
46652;DHT22;32377;52.182;5.398;2022-09-09T12:36:13;17.80;99.90
46652;DHT22;32377;52.182;5.398;2022-09-09T12:38:41;17.50;99.90
46652;DHT22;32377;52.182;5.398;2022-09-09T12:41:22;17.40;99.90
46652;DHT22;32377;52.182;5.398;2022-09-09T12:43:49;17.50;99.90
46652;DHT22;32377;52.182;5.398;2022-09-09T12:46:44;17.60;99.90
46652;DHT22;32377;52.182;5.398;2022-09-09T12:49:30;17.90;99.90
46652;DHT22;32377;52.182;5.398;2022-09-09T12:52:01;18.30;99.90
46652;DHT22;32377;52.182;5.398;2022-09-09T12:54:27;18.30;99.90
46652;DHT22;32377;52.182;5.398;2022-09-09T12:56:53;18.40;99.90
46652;DHT22;32377;52.182;5.398;2022-09-09T12:59:30;18.40;99.90
46652;DHT22;32377;52.182;5.398;2022-09-09T13:02:00;18.40;99.90
46652;DHT22;32377;52.182;5.398;2022-09-09T13:04:26;18.50;99.90
46652;DHT22;32377;52.182;5.398;2022-09-09T13:06:52;18.70;99.90
46652;DHT22;32377;52.182;5.398;2022-09-09T13:09:18;18.80;99.90
46652;DHT22;32377;52.182;5.398;2022-09-09T13:11:51;19.00;99.90
46652;DHT22;32377;52.182;5.398;2022-09-09T13:14:19;19.10;99.90
46652;DHT22;32377;52.182;5.398;2022-09-09T13:16:59;19.10;99.90
46652;DHT22;32377;52.182;5.398;2022-09-09T13:19:25;19.10;99.90
46652;DHT22;32377;52.182;5.398;2022-09-09T13:21:53;19.20;99.90
46652;DHT22;32377;52.182;5.398;2022-09-09T13:27:05;19.30;99.90
46652;DHT22;32377;52.182;5.398;2022-09-09T13:29:31;19.40;99.90
46652;DHT22;32377;52.182;5.398;2022-09-09T13:32:24;19.30;99.90
46652;DHT22;32377;52.182;5.398;2022-09-09T13:35:00;19.20;99.90
46652;DHT22;32377;52.182;5.398;2022-09-09T13:37:37;19.30;99.90
46652;DHT22;32377;52.182;5.398;2022-09-09T13:40:05;19.40;99.90
46652;DHT22;32377;52.182;5.398;2022-09-09T13:42:33;19.30;99.90
46652;DHT22;32377;52.182;5.398;2022-09-09T13:45:02;19.20;99.90
46652;DHT22;32377;52.182;5.398;2022-09-09T13:47:34;18.90;99.90
46652;DHT22;32377;52.182;5.398;2022-09-09T13:50:32;18.50;99.90
46652;DHT22;32377;52.182;5.398;2022-09-09T13:52:59;18.40;99.90
46652;DHT22;32377;52.182;5.398;2022-09-09T13:55:27;18.40;99.90
46652;DHT22;32377;52.182;5.398;2022-09-09T13:58:03;18.40;99.90
46652;DHT22;32377;52.182;5.398;2022-09-09T14:00:32;18.50;99.90
46652;DHT22;32377;52.182;5.398;2022-09-09T14:02:58;18.50;99.90
46652;DHT22;32377;52.182;5.398;2022-09-09T14:05:26;18.50;99.90
46652;DHT22;32377;52.182;5.398;2022-09-09T14:07:52;18.50;99.90
46652;DHT22;32377;52.182;5.398;2022-09-09T14:10:18;18.50;99.90
46652;DHT22;32377;52.182;5.398;2022-09-09T14:12:43;18.40;99.90
46652;DHT22;32377;52.182;5.398;2022-09-09T14:15:11;18.40;99.90
46652;DHT22;32377;52.182;5.398;2022-09-09T14:17:37;18.30;99.90
46652;DHT22;32377;52.182;5.398;2022-09-09T14:20:07;18.40;99.90
46652;DHT22;32377;52.182;5.398;2022-09-09T14:22:35;18.40;99.90
46652;DHT22;32377;52.182;5.398;2022-09-09T14:25:01;18.40;99.90
46652;DHT22;32377;52.182;5.398;2022-09-09T14:27:27;18.40;99.90
46652;DHT22;32377;52.182;5.398;2022-09-09T14:29:53;18.40;99.90
46652;DHT22;32377;52.182;5.398;2022-09-09T14:32:20;18.40;99.90
46652;DHT22;32377;52.182;5.398;2022-09-09T14:34:46;18.40;99.90
46652;DHT22;32377;52.182;5.398;2022-09-09T14:37:15;18.30;99.90
46652;DHT22;32377;52.182;5.398;2022-09-09T14:39:42;18.20;99.90
46652;DHT22;32377;52.182;5.398;2022-09-09T14:42:12;18.20;99.90
46652;DHT22;32377;52.182;5.398;2022-09-09T14:44:38;18.30;99.90
46652;DHT22;32377;52.182;5.398;2022-09-09T14:47:07;18.30;99.90
46652;DHT22;32377;52.182;5.398;2022-09-09T14:49:34;18.20;99.90
46652;DHT22;32377;52.182;5.398;2022-09-09T14:52:00;18.20;99.90
46652;DHT22;32377;52.182;5.398;2022-09-09T14:54:26;18.20;99.90
46652;DHT22;32377;52.182;5.398;2022-09-09T14:56:51;18.00;99.90
46652;DHT22;32377;52.182;5.398;2022-09-09T14:59:17;18.00;99.90
46652;DHT22;32377;52.182;5.398;2022-09-09T15:01:42;17.90;99.90
46652;DHT22;32377;52.182;5.398;2022-09-09T15:04:12;17.90;99.90
46652;DHT22;32377;52.182;5.398;2022-09-09T15:06:39;18.00;99.90
46652;DHT22;32377;52.182;5.398;2022-09-09T15:09:06;18.10;99.90
46652;DHT22;32377;52.182;5.398;2022-09-09T15:11:36;18.20;99.90
46652;DHT22;32377;52.182;5.398;2022-09-09T15:14:04;18.30;99.90
46652;DHT22;32377;52.182;5.398;2022-09-09T15:16:30;18.40;99.90
46652;DHT22;32377;52.182;5.398;2022-09-09T15:18:58;18.70;99.90
46652;DHT22;32377;52.182;5.398;2022-09-09T15:21:27;18.70;99.90
46652;DHT22;32377;52.182;5.398;2022-09-09T15:23:54;18.90;99.90
46652;DHT22;32377;52.182;5.398;2022-09-09T15:26:20;18.90;99.90
46652;DHT22;32377;52.182;5.398;2022-09-09T15:28:46;18.80;99.90
46652;DHT22;32377;52.182;5.398;2022-09-09T15:31:15;18.90;99.90
46652;DHT22;32377;52.182;5.398;2022-09-09T15:33:47;18.80;99.90
46652;DHT22;32377;52.182;5.398;2022-09-09T15:36:21;18.80;99.90
46652;DHT22;32377;52.182;5.398;2022-09-09T15:38:47;18.60;99.90
46652;DHT22;32377;52.182;5.398;2022-09-09T15:41:14;18.60;99.90
46652;DHT22;32377;52.182;5.398;2022-09-09T15:43:48;18.60;99.90
46652;DHT22;32377;52.182;5.398;2022-09-09T15:46:38;18.50;99.90
46652;DHT22;32377;52.182;5.398;2022-09-09T15:49:16;18.50;99.90
46652;DHT22;32377;52.182;5.398;2022-09-09T15:51:53;18.50;99.90
46652;DHT22;32377;52.182;5.398;2022-09-09T15:54:21;18.40;99.90
46652;DHT22;32377;52.182;5.398;2022-09-09T15:56:54;18.40;99.90
46652;DHT22;32377;52.182;5.398;2022-09-09T15:59:22;18.30;99.90
46652;DHT22;32377;52.182;5.398;2022-09-09T16:01:48;18.40;99.90
46652;DHT22;32377;52.182;5.398;2022-09-09T16:04:19;18.40;99.90
46652;DHT22;32377;52.182;5.398;2022-09-09T16:06:54;18.40;99.90
46652;DHT22;32377;52.182;5.398;2022-09-09T16:09:21;18.40;99.90
46652;DHT22;32377;52.182;5.398;2022-09-09T16:11:47;18.40;99.90
46652;DHT22;32377;52.182;5.398;2022-09-09T16:14:14;18.40;99.90
46652;DHT22;32377;52.182;5.398;2022-09-09T16:16:41;18.40;99.90
46652;DHT22;32377;52.182;5.398;2022-09-09T16:19:09;18.50;99.90
46652;DHT22;32377;52.182;5.398;2022-09-09T16:21:40;18.50;99.90
46652;DHT22;32377;52.182;5.398;2022-09-09T16:24:08;18.50;99.90
46652;DHT22;32377;52.182;5.398;2022-09-09T16:26:36;18.50;99.90
46652;DHT22;32377;52.182;5.398;2022-09-09T16:29:03;18.40;99.90
46652;DHT22;32377;52.182;5.398;2022-09-09T16:31:29;18.30;99.90
46652;DHT22;32377;52.182;5.398;2022-09-09T16:33:57;18.30;99.90
46652;DHT22;32377;52.182;5.398;2022-09-09T16:36:25;18.30;99.90
46652;DHT22;32377;52.182;5.398;2022-09-09T16:38:53;18.20;99.90
46652;DHT22;32377;52.182;5.398;2022-09-09T16:41:20;18.10;99.90
46652;DHT22;32377;52.182;5.398;2022-09-09T16:43:46;18.00;99.90
46652;DHT22;32377;52.182;5.398;2022-09-09T16:46:19;18.00;99.90
46652;DHT22;32377;52.182;5.398;2022-09-09T16:48:46;17.90;99.90
46652;DHT22;32377;52.182;5.398;2022-09-09T16:51:17;17.80;99.90
46652;DHT22;32377;52.182;5.398;2022-09-09T16:53:43;17.80;99.90
46652;DHT22;32377;52.182;5.398;2022-09-09T16:56:45;17.80;99.90
46652;DHT22;32377;52.182;5.398;2022-09-09T16:59:06;17.80;99.90
46652;DHT22;32377;52.182;5.398;2022-09-09T17:01:34;17.80;99.90
46652;DHT22;32377;52.182;5.398;2022-09-09T17:04:04;17.80;99.90
46652;DHT22;32377;52.182;5.398;2022-09-09T17:06:31;18.00;99.90
46652;DHT22;32377;52.182;5.398;2022-09-09T17:09:02;18.00;99.90
46652;DHT22;32377;52.182;5.398;2022-09-09T17:11:29;17.90;99.90
46652;DHT22;32377;52.182;5.398;2022-09-09T17:13:55;17.90;99.90
46652;DHT22;32377;52.182;5.398;2022-09-09T17:16:23;17.80;99.90
46652;DHT22;32377;52.182;5.398;2022-09-09T17:18:50;17.80;99.90
46652;DHT22;32377;52.182;5.398;2022-09-09T17:21:18;17.70;99.90
46652;DHT22;32377;52.182;5.398;2022-09-09T17:23:45;17.70;99.90
46652;DHT22;32377;52.182;5.398;2022-09-09T17:26:14;17.70;99.90
46652;DHT22;32377;52.182;5.398;2022-09-09T17:28:41;17.70;99.90
46652;DHT22;32377;52.182;5.398;2022-09-09T17:31:09;17.60;99.90
46652;DHT22;32377;52.182;5.398;2022-09-09T17:33:38;17.60;99.90